21 a 26/10 - Lluvias y tormentas para (casi) todos

Avatar de Usuario
Ernest
Mensajes: 12131
Registrado: Vie Jul 17, 2009 10:54 pm
Ubicación: Balvanera, CABA

21 a 26/10 - Lluvias y tormentas para (casi) todos

Mensaje por Ernest » Mié Oct 21, 2020 12:45 pm

Abrimos nuevo thread. Corto un poco eventos activos pero ya se estaba haciendo muy largo.
Mediodía cubierto en Once con viento y 17 grados en mi termómetro de ventana.
Última edición por Ernest el Lun Oct 26, 2020 3:35 pm, editado 1 vez en total.
Did you want to talk about the weather, or were you just making chitchat?

Twitter: @ErnestoAtmoII

Avatar de Usuario
MOTORHOMEMASTER
Mensajes: 4900
Registrado: Lun May 16, 2011 2:20 pm
Ubicación: Castelar o Hurlingham, Prov. Bs. As.

Re: 21 a 29/10 - Lluvias y tormentas para (casi) todos

Mensaje por MOTORHOMEMASTER » Mié Oct 21, 2020 1:58 pm

Tormenta zona Escobar?

Avatar de Usuario
Ezequiel15
Mensajes: 12321
Registrado: Lun Ene 23, 2012 4:18 pm
Ubicación: I Casanova
Contactar:

Re: 21 a 29/10 - Lluvias y tormentas para (casi) todos

Mensaje por Ezequiel15 » Mié Oct 21, 2020 2:01 pm

Formosa 37,3
Las Lomitas 29,8

Avatar de Usuario
Diecha
Mensajes: 15091
Registrado: Jue Ago 25, 2011 9:31 pm
Ubicación: Lomas de Zamora

Re: 21 a 29/10 - Lluvias y tormentas para (casi) todos

Mensaje por Diecha » Mié Oct 21, 2020 2:27 pm

- San Fernando 14 hs: SADF 211700Z 09018KT 9999 FEW025 OVC100 17/11 Q1024
- Aeroparque 14 hs: SABE 211700Z 11019KT 9999 FEW025 BKN100 17/11 Q1025
- Ezeiza 14 hs: SAEZ 211700Z 11017KT 9999 FEW031 OVC100 17/10 Q1025

Imagen
Imagen
Imagen

Avatar de Usuario
Santiago Linari
Mensajes: 8678
Registrado: Sab Dic 29, 2012 4:28 pm
Ubicación: Challao, Mendoza

Re: 21 a 29/10 - Lluvias y tormentas para (casi) todos

Mensaje por Santiago Linari » Mié Oct 21, 2020 3:05 pm

Mayormente nublado con nubes bajas y templado.
A las 14 hs hacía 20,8ºC y 51%.
El punto de rocío está en 10,3ºC. Ayer a la misma hora era de -3,8ºC.
¡Oops!

Algo salió mal

Avatar de Usuario
Ezequiel1995
Mensajes: 1804
Registrado: Mar Nov 12, 2019 4:50 pm
Ubicación: Merlo, Buenos Aires
Contactar:

Re: 21 a 29/10 - Lluvias y tormentas para (casi) todos

Mensaje por Ezequiel1995 » Mié Oct 21, 2020 3:24 pm

Fresco y muy ventoso acá. Todavía no llovió hoy
#MuerteALasLineas (by Fedex)
Aplicación Gustfront! 2.5

Avatar de Usuario
HernanCba
Mensajes: 3335
Registrado: Sab Mar 02, 2013 1:21 am
Ubicación: Cosquín, Valle de Punilla, Córdoba
Contactar:

Re: 21 a 29/10 - Lluvias y tormentas para (casi) todos

Mensaje por HernanCba » Mié Oct 21, 2020 3:30 pm

13.2°C en Córdoba, cielo cubierto. Las nubes bajas cubren las sierras pero no ha precipitado en el día todavía.

Avatar de Usuario
Ale de Castelar
Mensajes: 28380
Registrado: Sab Mar 03, 2012 12:25 pm
Ubicación: Caballito

Re: 21 a 29/10 - Lluvias y tormentas para (casi) todos

Mensaje por Ale de Castelar » Mié Oct 21, 2020 4:26 pm

Empezo a gotear en Boedo

Avatar de Usuario
Ezequiel1995
Mensajes: 1804
Registrado: Mar Nov 12, 2019 4:50 pm
Ubicación: Merlo, Buenos Aires
Contactar:

Re: 21 a 29/10 - Lluvias y tormentas para (casi) todos

Mensaje por Ezequiel1995 » Mié Oct 21, 2020 4:36 pm

Gotea acá también
#MuerteALasLineas (by Fedex)
Aplicación Gustfront! 2.5

Avatar de Usuario
mateix
Mensajes: 5631
Registrado: Mié Abr 11, 2012 10:35 am

Re: 21 a 29/10 - Lluvias y tormentas para (casi) todos

Mensaje por mateix » Mié Oct 21, 2020 5:18 pm

Llovizna y ventarrón por Colegiales.

Estas tardes tempestuosas son un poema.
Claves para leer correctamente el pronóstico del SMN:

Lluvias/tormentas: parcialmente nublado
Cubierto: algo nublado
Parcialmente nublado: despejado
Despejado: despejado

Responder